Accueil
METAR-TAF:

METAR-TAF

Aéroports :

Aéroport de Bristol

Bristol, Angleterre

latitude: 51-23N, longitude: 002-43W, altitude: 189 m

Observation

Le bulletin a été fait il y a 28 minutes, à 05:50 UTC
Vent 4 kt de sud-ouest
Température 2°C
Humidité 80%
Pression 1024 hPa
Visibilité 10 km ou plus

METAR: EGGD 080550Z AUTO 23004KT 9999 NCD 02/M01 Q1024

Heure: 06:18 (06:18 UTC)

Prévision

Le bulletin a été fait il y a 1 heure et 26 minutes, à 04:52 UTC
Prévision valable du 08 à 06 UTC au 09 à 06 UTC
Vent 5 kt de ouest/sud-ouest
Visibilité 10 km ou plus
Quelques nuages à une hauteur de 4000 ft
Probabilité 30%
du 08 à 06 UTC au 08 à 09 UTC
Visibilité: 9000 m
Probabilité 30%
du 09 à 03 UTC au 09 à 06 UTC
Visibilité: 6000 m

TAF: EGGD 080452Z 0806/0906 25005KT 9999 FEW040 PROB30 0806/0809 9000 PROB30 0903/0906 6000

Observations et prévisions météorologiques de plus de 4000 aéroports (messages METAR et TAF).

Les stations disponibles sont représentées par des disques jaunes et rouges sur la carte.

Passer la souris dessus pour voir le nom de la station.

Cliquer dessus pour voir les observations et prévisions météorologiques.

Pour changer de carte: cliquez sur les boutons verts avec une croix noire pour zoomer, sur le bouton vert avec un tiret pour effectuer un zoom arrière, ou sur les flèches vertes pour les cartes adjacentes.


METAR-TAF: